Time;durP1;ratioP1;P1;durP2;ratioP2;P2;SDS_P1;SDS_P2;PMS_P1;PMS_P2;Temp;Humidity;BMP_temperature;BMP_pressure;BME280_temperature;BME280_humidity;BME280_pressure;Samples;Min_cycle;Max_cycle;Signal;HPM_P1;HPM_P2
2022/04/02 00:00:57;;;;;;;13.32;7.40;;;1.50;99.90;;;;;;5002291;28;20064;-71
2022/04/02 00:03:23;;;;;;;13.82;7.15;;;1.50;99.90;;;;;;5004229;28;20042;-71
2022/04/02 00:05:49;;;;;;;12.35;7.00;;;1.50;99.90;;;;;;4999839;28;20057;-71
2022/04/02 00:08:16;;;;;;;9.65;7.22;;;1.50;99.90;;;;;;5005310;28;20050;-71
2022/04/02 00:10:41;;;;;;;11.48;6.95;;;1.50;99.90;;;;;;5006275;28;20073;-70
2022/04/02 00:13:07;;;;;;;10.02;6.93;;;1.50;99.90;;;;;;5005975;28;20384;-71
2022/04/02 00:15:33;;;;;;;11.18;7.57;;;1.50;99.90;;;;;;5002037;28;20046;-71
2022/04/02 00:17:59;;;;;;;11.88;7.00;;;1.60;99.90;;;;;;5012041;28;20495;-70
2022/04/02 00:20:25;;;;;;;13.32;7.60;;;1.60;99.90;;;;;;5003758;28;20048;-70
2022/04/02 00:25:36;;;;;;;10.18;7.00;;;1.60;99.90;;;;;;5003758;28;20093;-71
2022/04/02 00:28:02;;;;;;;16.92;7.18;;;1.60;99.90;;;;;;5008872;28;20101;-71
2022/04/02 00:30:27;;;;;;;15.15;7.60;;;1.50;99.90;;;;;;4997642;28;20530;-71
2022/04/02 00:32:53;;;;;;;11.80;7.53;;;1.50;99.90;;;;;;5002541;28;20046;-71
2022/04/02 00:35:20;;;;;;;13.48;7.60;;;1.50;99.90;;;;;;5007798;28;20052;-71
2022/04/02 00:37:46;;;;;;;11.23;6.63;;;1.50;99.90;;;;;;4996731;28;20046;-71
2022/04/02 00:40:11;;;;;;;15.68;7.20;;;1.50;99.90;;;;;;5006824;28;20054;-71
2022/04/02 00:42:37;;;;;;;12.02;6.05;;;1.50;99.90;;;;;;5007798;28;20050;-71
2022/04/02 00:45:03;;;;;;;8.98;6.28;;;1.40;99.90;;;;;;5007903;28;20124;-71
2022/04/02 00:47:29;;;;;;;11.50;7.60;;;1.40;99.90;;;;;;5005929;28;20065;-71
2022/04/02 00:49:55;;;;;;;9.48;6.78;;;1.50;99.90;;;;;;5005772;28;20050;-71
2022/04/02 00:52:21;;;;;;;9.52;6.13;;;1.50;99.90;;;;;;5008181;28;20049;-71
2022/04/02 00:54:51;;;;;;;10.75;6.82;;;1.50;99.90;;;;;;5006868;28;20100;-70
2022/04/02 00:57:18;;;;;;;21.73;7.97;;;1.50;99.90;;;;;;5009551;28;20053;-70
2022/04/02 00:59:45;;;;;;;9.80;6.78;;;1.50;99.90;;;;;;5004162;28;20110;-71
2022/04/02 01:02:10;;;;;;;11.38;7.05;;;1.40;99.90;;;;;;5005412;28;20038;-71
2022/04/02 01:04:36;;;;;;;9.57;6.38;;;1.40;99.90;;;;;;5007016;28;20394;-70
2022/04/02 01:07:03;;;;;;;11.55;6.57;;;1.40;99.90;;;;;;5003148;28;20056;-70
2022/04/02 01:09:29;;;;;;;8.93;5.97;;;1.40;99.90;;;;;;5008598;28;20046;-70
2022/04/02 01:11:56;;;;;;;11.38;5.93;;;1.40;99.90;;;;;;5004234;28;20116;-71
2022/04/02 01:14:22;;;;;;;14.68;7.05;;;1.30;99.90;;;;;;4997885;28;20116;-70
2022/04/02 01:16:49;;;;;;;12.00;7.57;;;1.30;99.90;;;;;;5004565;28;21165;-71
2022/04/02 01:19:17;;;;;;;11.30;7.35;;;1.30;99.90;;;;;;5004320;28;20068;-71
2022/04/02 01:21:45;;;;;;;12.68;7.78;;;1.20;99.90;;;;;;5006418;28;20434;-70
2022/04/02 01:24:12;;;;;;;10.73;7.13;;;1.20;99.90;;;;;;5005864;28;20046;-69
2022/04/02 01:26:39;;;;;;;13.73;7.83;;;1.20;99.90;;;;;;5007832;28;20147;-70
2022/04/02 01:29:06;;;;;;;10.82;7.35;;;1.20;99.90;;;;;;5002008;28;20309;-70
2022/04/02 01:31:33;;;;;;;13.57;6.50;;;1.20;99.90;;;;;;5000219;28;20078;-71
2022/04/02 01:34:00;;;;;;;11.82;6.45;;;1.10;99.90;;;;;;5006610;28;20053;-70
2022/04/02 01:36:26;;;;;;;7.80;6.38;;;1.10;99.90;;;;;;5004574;28;20080;-70
2022/04/02 01:38:52;;;;;;;14.38;7.47;;;1.10;99.90;;;;;;5004165;28;20408;-70
2022/04/02 01:41:19;;;;;;;9.35;6.85;;;1.10;99.90;;;;;;5004785;28;20132;-71
2022/04/02 01:43:45;;;;;;;9.88;6.80;;;1.00;99.90;;;;;;5006484;28;20498;-70
2022/04/02 01:46:12;;;;;;;11.63;7.63;;;1.00;99.90;;;;;;5007294;28;20100;-70
2022/04/02 01:48:38;;;;;;;11.23;7.18;;;1.00;99.90;;;;;;5006469;28;20072;-70
2022/04/02 01:51:04;;;;;;;10.43;7.47;;;0.90;99.90;;;;;;5006448;28;20049;-71
2022/04/02 01:53:31;;;;;;;12.18;7.28;;;0.90;99.90;;;;;;5002629;28;20046;-71
2022/04/02 01:55:57;;;;;;;12.43;8.13;;;0.90;99.90;;;;;;5004678;28;20058;-70
2022/04/02 01:58:22;;;;;;;16.45;8.38;;;0.90;99.90;;;;;;5001520;28;20518;-70
2022/04/02 02:00:48;;;;;;;10.82;8.55;;;0.90;99.90;;;;;;5011693;28;20080;-70
2022/04/02 02:03:14;;;;;;;12.20;8.10;;;0.90;99.90;;;;;;5008785;28;20048;-70
2022/04/02 02:05:40;;;;;;;16.48;7.63;;;0.80;99.90;;;;;;5008015;28;20080;-71
2022/04/02 02:08:07;;;;;;;10.07;7.97;;;0.80;99.90;;;;;;5011984;28;20526;-70
2022/04/02 02:10:33;;;;;;;11.90;7.50;;;0.80;99.90;;;;;;5000872;28;20157;-70
2022/04/02 02:12:59;;;;;;;16.67;8.20;;;0.80;99.90;;;;;;4999648;28;20137;-70
2022/04/02 02:15:26;;;;;;;14.32;8.73;;;0.80;99.90;;;;;;5004171;28;20038;-70
2022/04/02 02:17:53;;;;;;;14.90;9.48;;;0.80;99.90;;;;;;5006613;28;20128;-70
2022/04/02 02:20:20;;;;;;;11.98;8.52;;;0.80;99.90;;;;;;5004845;28;20060;-70
2022/04/02 02:22:47;;;;;;;11.90;7.95;;;0.80;99.90;;;;;;5004854;28;20054;-70
2022/04/02 02:25:15;;;;;;;11.45;8.07;;;0.70;99.90;;;;;;5007188;28;20081;-71
2022/04/02 02:27:42;;;;;;;15.63;7.63;;;0.70;99.90;;;;;;4990402;28;20045;-70
2022/04/02 02:30:10;;;;;;;16.83;8.02;;;0.70;99.90;;;;;;5001663;28;20128;-69
2022/04/02 02:32:39;;;;;;;12.93;8.90;;;0.60;99.90;;;;;;5009371;28;20049;-70
2022/04/02 02:38:08;;;;;;;10.23;8.35;;;0.60;99.90;;;;;;5015577;28;20157;-70
2022/04/02 02:40:35;;;;;;;15.77;8.93;;;0.60;99.90;;;;;;5007754;28;20518;-70
2022/04/02 02:43:01;;;;;;;11.38;8.68;;;0.60;99.90;;;;;;5007973;28;20116;-70
2022/04/02 02:45:27;;;;;;;12.40;7.95;;;0.60;99.90;;;;;;5009132;28;20498;-70
2022/04/02 02:47:53;;;;;;;14.82;8.30;;;0.60;99.90;;;;;;5012256;28;20080;-70
2022/04/02 02:50:20;;;;;;;16.23;8.13;;;0.50;99.90;;;;;;5007701;28;20754;-70
2022/04/02 02:52:49;;;;;;;13.07;8.82;;;0.50;99.90;;;;;;5016882;28;20711;-70
2022/04/02 02:55:15;;;;;;;22.23;8.45;;;0.60;99.90;;;;;;5009202;28;20164;-70
2022/04/02 02:57:42;;;;;;;14.23;7.40;;;0.50;99.90;;;;;;5013392;28;20144;-70
2022/04/02 03:00:09;;;;;;;14.25;9.18;;;0.60;99.90;;;;;;5011490;28;20058;-70
2022/04/02 03:02:37;;;;;;;10.35;7.80;;;0.60;99.90;;;;;;5023302;28;20466;-70
2022/04/02 03:05:06;;;;;;;9.90;7.15;;;0.60;99.90;;;;;;5009736;28;20033;-69
2022/04/02 03:07:41;;;;;;;23.65;7.63;;;0.60;99.90;;;;;;5010149;28;20136;-69
2022/04/02 03:10:08;;;;;;;11.95;8.48;;;0.60;99.90;;;;;;5010768;28;20053;-69
2022/04/02 03:12:34;;;;;;;15.00;8.73;;;0.60;99.90;;;;;;5012314;28;20398;-71
2022/04/02 03:15:01;;;;;;;13.48;8.30;;;0.50;99.90;;;;;;5009721;28;20048;-70
2022/04/02 03:17:30;;;;;;;13.60;7.95;;;0.50;99.90;;;;;;5009995;28;20131;-70
2022/04/02 03:19:55;;;;;;;22.23;9.27;;;0.50;99.90;;;;;;5010322;28;20065;-70
2022/04/02 03:22:21;;;;;;;15.27;7.68;;;0.50;99.90;;;;;;5012952;28;20067;-69
2022/04/02 03:24:47;;;;;;;14.30;8.27;;;0.50;99.90;;;;;;5018503;28;20046;-70
2022/04/02 03:27:13;;;;;;;14.57;7.72;;;0.50;99.90;;;;;;5007472;28;20116;-70
2022/04/02 03:29:39;;;;;;;14.60;8.38;;;0.50;99.90;;;;;;5017641;28;20061;-70
2022/04/02 03:32:05;;;;;;;13.35;8.27;;;0.50;99.90;;;;;;5010660;28;20060;-70
2022/04/02 03:34:32;;;;;;;14.35;7.80;;;0.50;99.90;;;;;;5021347;28;20060;-70
2022/04/02 03:36:57;;;;;;;13.57;8.98;;;0.40;99.90;;;;;;5009451;28;20495;-70
2022/04/02 03:39:23;;;;;;;21.75;7.88;;;0.40;99.90;;;;;;5004529;28;20058;-70
2022/04/02 03:41:49;;;;;;;13.60;8.82;;;0.40;99.90;;;;;;4994570;28;20046;-69
2022/04/02 03:44:15;;;;;;;14.50;8.45;;;0.40;99.90;;;;;;5019909;28;20055;-69
2022/04/02 03:49:26;;;;;;;10.98;6.70;;;0.50;99.90;;;;;;5004997;28;20081;-70
2022/04/02 03:51:52;;;;;;;14.65;7.50;;;0.40;99.90;;;;;;5012291;28;20061;-69
2022/04/02 03:54:19;;;;;;;16.20;7.95;;;0.40;99.90;;;;;;5008442;28;20054;-70
2022/04/02 03:56:44;;;;;;;11.63;7.00;;;0.40;99.90;;;;;;5008664;28;20077;-70
2022/04/02 03:59:11;;;;;;;12.27;8.20;;;0.40;99.90;;;;;;5003169;28;20157;-70
2022/04/02 04:01:38;;;;;;;9.73;6.88;;;0.40;99.90;;;;;;5009725;28;20054;-70
2022/04/02 04:04:04;;;;;;;18.73;7.80;;;0.40;99.90;;;;;;5008903;28;20041;-70
2022/04/02 04:06:31;;;;;;;10.35;7.45;;;0.40;99.90;;;;;;4991914;28;20046;-70
2022/04/02 04:08:58;;;;;;;11.52;6.93;;;0.40;99.90;;;;;;4990949;28;20041;-70
2022/04/02 04:11:26;;;;;;;16.33;7.50;;;0.30;99.90;;;;;;5007453;28;20084;-69
2022/04/02 04:13:52;;;;;;;12.27;7.20;;;0.40;99.90;;;;;;5011925;28;20078;-71
2022/04/02 04:16:18;;;;;;;13.63;6.85;;;0.30;99.90;;;;;;5001559;28;20053;-71
2022/04/02 04:18:44;;;;;;;13.60;6.53;;;0.30;99.90;;;;;;5004341;28;20431;-71
2022/04/02 04:21:11;;;;;;;11.00;7.40;;;0.30;99.90;;;;;;5001115;28;20061;-70
2022/04/02 04:23:36;;;;;;;12.02;7.10;;;0.30;99.90;;;;;;5021540;28;20438;-70
2022/04/02 04:26:02;;;;;;;13.48;7.93;;;0.30;99.90;;;;;;5008742;28;20056;-71
2022/04/02 04:28:28;;;;;;;10.23;6.60;;;0.20;99.90;;;;;;5012256;28;20079;-71
2022/04/02 04:30:55;;;;;;;15.70;8.07;;;0.20;99.90;;;;;;5007243;28;20119;-70
2022/04/02 04:33:20;;;;;;;12.18;7.10;;;0.20;99.90;;;;;;5004308;28;20053;-70
2022/04/02 04:35:46;;;;;;;10.00;7.18;;;0.20;99.90;;;;;;5003989;28;20529;-71
2022/04/02 04:38:12;;;;;;;17.30;8.00;;;0.20;99.90;;;;;;5010598;28;20050;-70
2022/04/02 04:40:38;;;;;;;8.05;6.47;;;0.20;99.90;;;;;;5011547;28;20054;-70
2022/04/02 04:43:03;;;;;;;11.57;7.57;;;0.20;99.90;;;;;;5009127;28;20045;-70
2022/04/02 04:45:29;;;;;;;11.45;6.95;;;0.20;99.90;;;;;;5013545;28;20500;-70
2022/04/02 04:47:55;;;;;;;17.02;7.55;;;0.20;99.90;;;;;;5012042;28;20069;-73
2022/04/02 04:50:21;;;;;;;10.40;6.47;;;0.20;99.90;;;;;;5010866;28;20119;-70
2022/04/02 04:52:46;;;;;;;13.73;7.32;;;0.20;99.90;;;;;;5008576;28;20049;-70
2022/04/02 04:55:12;;;;;;;14.50;8.10;;;0.20;99.90;;;;;;5000212;28;20464;-70
2022/04/02 04:57:37;;;;;;;13.07;7.18;;;0.20;99.90;;;;;;5015534;28;20049;-70
2022/04/02 05:00:05;;;;;;;14.55;7.72;;;0.20;99.90;;;;;;5008842;28;20057;-70
2022/04/02 05:02:31;;;;;;;15.07;7.70;;;0.20;99.90;;;;;;5001365;28;20751;-70
2022/04/02 05:04:57;;;;;;;13.07;7.03;;;0.20;99.90;;;;;;5006079;28;20034;-69
2022/04/02 05:07:24;;;;;;;13.68;7.28;;;0.20;99.90;;;;;;5000213;28;20518;-70
2022/04/02 05:09:50;;;;;;;10.82;7.15;;;0.10;99.90;;;;;;4994998;28;20057;-71
2022/04/02 05:12:16;;;;;;;11.70;7.45;;;0.20;99.90;;;;;;5004756;28;20057;-70
2022/04/02 05:14:42;;;;;;;18.63;8.55;;;0.10;99.90;;;;;;4991890;28;20057;-70
2022/04/02 05:17:08;;;;;;;23.38;8.50;;;0.10;99.90;;;;;;4998267;28;20077;-70
2022/04/02 05:19:34;;;;;;;11.20;7.13;;;0.10;99.90;;;;;;5004788;28;20055;-70
2022/04/02 05:22:01;;;;;;;15.68;8.68;;;0.10;99.90;;;;;;5005862;28;20050;-71
2022/04/02 05:24:27;;;;;;;23.45;9.40;;;0.20;99.90;;;;;;5012431;28;20131;-71
2022/04/02 05:26:52;;;;;;;23.95;9.48;;;0.10;99.90;;;;;;5005991;28;20072;-70
2022/04/02 05:29:18;;;;;;;17.30;10.13;;;0.20;99.90;;;;;;5002610;28;20054;-70
2022/04/02 05:31:43;;;;;;;19.00;10.18;;;0.20;99.90;;;;;;5003197;28;20048;-70
2022/04/02 05:34:10;;;;;;;16.17;9.18;;;0.30;99.90;;;;;;5014096;28;20507;-70
2022/04/02 05:36:38;;;;;;;18.17;8.18;;;0.30;99.90;;;;;;5009389;28;20049;-70
2022/04/02 05:39:04;;;;;;;16.73;9.48;;;0.40;99.90;;;;;;5004743;28;20041;-70
2022/04/02 05:41:31;;;;;;;17.40;10.15;;;0.40;99.90;;;;;;5008099;28;20042;-70
2022/04/02 05:43:57;;;;;;;13.35;7.90;;;0.40;99.90;;;;;;5004180;28;20041;-71
2022/04/02 05:46:22;;;;;;;19.15;9.13;;;0.40;99.90;;;;;;5006757;28;20057;-71
2022/04/02 05:48:48;;;;;;;16.60;8.32;;;0.50;99.90;;;;;;5005535;28;20042;-71
2022/04/02 05:51:14;;;;;;;12.82;8.88;;;0.50;99.90;;;;;;4998493;28;20057;-70
2022/04/02 05:53:41;;;;;;;17.25;8.80;;;0.60;99.90;;;;;;5006872;28;20042;-70
2022/04/02 05:56:07;;;;;;;14.35;9.40;;;0.60;99.90;;;;;;5008508;28;20091;-70
2022/04/02 05:58:33;;;;;;;12.73;9.48;;;0.70;99.90;;;;;;5004669;28;20442;-73
2022/04/02 06:00:59;;;;;;;16.40;7.82;;;0.70;99.90;;;;;;4998156;28;20066;-70
2022/04/02 06:03:24;;;;;;;16.48;8.73;;;0.70;99.90;;;;;;4987277;28;20051;-70
2022/04/02 06:05:50;;;;;;;21.13;8.80;;;0.80;99.90;;;;;;4988607;28;20038;-70
2022/04/02 06:08:18;;;;;;;12.52;8.50;;;0.80;99.90;;;;;;5002154;28;20764;-70
2022/04/02 06:10:45;;;;;;;14.20;9.00;;;0.80;99.90;;;;;;5009288;28;20034;-70
2022/04/02 06:13:11;;;;;;;13.80;9.00;;;0.90;99.90;;;;;;5009424;28;20088;-70
2022/04/02 06:15:37;;;;;;;17.30;9.63;;;0.90;99.90;;;;;;4994100;28;20070;-70
2022/04/02 06:18:04;;;;;;;15.25;9.00;;;1.00;99.90;;;;;;4992686;28;20050;-70
2022/04/02 06:20:29;;;;;;;18.02;9.93;;;1.10;99.90;;;;;;4991756;28;20047;-70
2022/04/02 06:22:55;;;;;;;13.10;9.25;;;1.10;99.90;;;;;;4991060;28;20061;-70
2022/04/02 06:25:22;;;;;;;17.42;10.27;;;1.20;99.90;;;;;;4997545;28;20061;-71
2022/04/02 06:27:48;;;;;;;15.15;8.65;;;1.30;99.90;;;;;;5011135;28;20046;-70
2022/04/02 06:30:17;;;;;;;20.42;10.45;;;1.40;99.90;;;;;;5011365;28;20407;-71
2022/04/02 06:32:43;;;;;;;17.48;9.32;;;1.50;99.90;;;;;;5011853;28;20084;-71
2022/04/02 06:35:09;;;;;;;14.70;7.75;;;1.60;99.90;;;;;;5011988;28;20041;-71
2022/04/02 06:37:38;;;;;;;11.07;8.25;;;1.70;99.90;;;;;;5000198;28;20061;-70
2022/04/02 06:40:05;;;;;;;15.93;8.98;;;1.80;99.90;;;;;;5010846;28;20484;-71
2022/04/02 06:42:31;;;;;;;14.93;9.20;;;1.90;99.90;;;;;;5009203;28;20087;-71
2022/04/02 06:44:57;;;;;;;15.90;9.57;;;2.00;99.90;;;;;;5015250;28;20533;-71
2022/04/02 06:47:26;;;;;;;16.15;9.52;;;2.10;99.90;;;;;;5019197;28;20054;-72
2022/04/02 06:49:53;;;;;;;11.48;7.72;;;2.30;99.90;;;;;;5008863;28;20058;-71
2022/04/02 06:52:18;;;;;;;12.98;8.02;;;2.40;99.90;;;;;;5015989;28;20045;-71
2022/04/02 06:54:44;;;;;;;12.88;8.32;;;2.50;99.90;;;;;;5000656;28;20046;-71
2022/04/02 06:57:09;;;;;;;14.18;8.07;;;2.70;99.90;;;;;;5008726;28;20054;-71
2022/04/02 06:59:35;;;;;;;12.48;8.38;;;2.80;99.90;;;;;;5011129;28;20751;-71
2022/04/02 07:02:01;;;;;;;17.48;9.18;;;2.90;99.90;;;;;;5009138;28;20050;-71
2022/04/02 07:04:27;;;;;;;13.98;8.98;;;3.10;99.90;;;;;;5001687;28;20054;-71
2022/04/02 07:06:52;;;;;;;12.98;7.68;;;3.20;99.90;;;;;;5007762;28;20045;-70
2022/04/02 07:09:18;;;;;;;14.55;8.20;;;3.30;99.90;;;;;;5010107;28;20372;-71
2022/04/02 07:11:45;;;;;;;19.42;8.65;;;3.40;99.90;;;;;;5010004;28;20176;-73
2022/04/02 07:14:11;;;;;;;11.05;8.02;;;3.50;99.90;;;;;;5011052;28;20037;-72
2022/04/02 07:16:38;;;;;;;11.05;7.40;;;3.50;99.90;;;;;;5009136;28;20060;-72
2022/04/02 07:19:04;;;;;;;13.68;8.23;;;3.50;99.90;;;;;;5009930;28;20526;-72
2022/04/02 07:21:33;;;;;;;11.27;6.75;;;3.50;99.90;;;;;;5010716;28;20081;-72
2022/04/02 07:23:59;;;;;;;15.73;7.90;;;3.50;99.90;;;;;;5010039;28;20125;-73
2022/04/02 07:26:25;;;;;;;14.43;7.57;;;3.60;99.90;;;;;;4996567;28;20125;-72
2022/04/02 07:28:52;;;;;;;10.85;7.55;;;3.70;99.90;;;;;;4995015;28;20255;-72
2022/04/02 07:31:18;;;;;;;8.70;6.82;;;3.70;99.90;;;;;;5011367;28;20049;-72
2022/04/02 07:33:43;;;;;;;9.43;7.03;;;3.90;99.90;;;;;;4994689;28;20518;-72
2022/04/02 07:36:38;;;;;;;12.10;7.50;;;4.00;99.90;;;;;;5011217;28;20112;-72
2022/04/02 07:39:12;;;;;;;9.00;7.50;;;4.10;99.90;;;;;;5009910;28;20072;-72
2022/04/02 07:42:32;;;;;;;12.80;7.80;;;4.20;99.90;;;;;;5009340;28;20050;-72
2022/04/02 07:45:10;;;;;;;16.13;9.07;;;4.20;99.90;;;;;;4997823;28;20498;-72
2022/04/02 07:47:38;;;;;;;12.35;8.27;;;4.30;99.90;;;;;;5003778;28;20046;-71
2022/04/02 07:50:08;;;;;;;8.35;7.47;;;4.40;99.90;;;;;;4998153;28;20491;-72
2022/04/02 07:52:36;;;;;;;11.02;7.50;;;4.50;99.90;;;;;;4990157;28;20046;-71
2022/04/02 07:55:06;;;;;;;16.17;8.63;;;4.60;99.90;;;;;;5000247;28;20649;-72
2022/04/02 07:57:43;;;;;;;8.60;7.35;;;4.50;99.90;;;;;;5005558;28;20200;-71
2022/04/02 08:00:11;;;;;;;13.50;8.60;;;4.60;99.90;;;;;;4999549;28;20060;-73
2022/04/02 08:02:39;;;;;;;13.13;7.15;;;4.60;99.90;;;;;;5011853;28;20117;-72
2022/04/02 08:05:16;;;;;;;21.38;8.45;;;4.80;99.90;;;;;;5004896;28;20508;-71
2022/04/02 08:07:49;;;;;;;10.25;7.45;;;4.90;99.90;;;;;;5010460;28;20050;-71
2022/04/02 08:10:17;;;;;;;12.90;8.60;;;5.00;99.90;;;;;;5009138;28;20045;-71
2022/04/02 08:12:43;;;;;;;10.88;7.25;;;5.00;99.90;;;;;;5006445;28;20038;-73
2022/04/02 08:15:12;;;;;;;10.80;7.80;;;4.90;99.90;;;;;;5007447;28;20455;-73
2022/04/02 08:17:43;;;;;;;19.90;8.68;;;5.00;99.90;;;;;;4993886;28;20050;-73
2022/04/02 08:20:10;;;;;;;10.65;7.88;;;5.20;99.90;;;;;;4999489;28;20701;-73
2022/04/02 08:22:36;;;;;;;13.23;8.63;;;5.40;99.90;;;;;;5003656;28;20049;-73
2022/04/02 08:25:03;;;;;;;10.88;7.38;;;5.40;99.90;;;;;;5004768;28;20053;-73
2022/04/02 08:28:12;;;;;;;13.25;8.25;;;5.50;99.90;;;;;;4996761;28;20092;-73
2022/04/02 08:31:12;;;;;;;12.63;7.30;;;5.60;99.90;;;;;;4984550;28;20066;-74
2022/04/02 08:33:40;;;;;;;16.98;6.63;;;5.80;99.90;;;;;;4996048;28;20456;-70
2022/04/02 08:36:15;;;;;;;;;;;5.90;99.90;;;;;;5002822;28;20042;-70
2022/04/02 08:39:03;;;;;;;10.60;5.82;;;5.80;99.90;;;;;;5005360;28;19921;-71
2022/04/02 08:42:00;;;;;;;12.63;6.90;;;5.80;99.90;;;;;;4998708;28;20047;-71
2022/04/02 08:44:50;;;;;;;7.80;6.47;;;5.80;99.90;;;;;;5004906;28;20129;-70
2022/04/02 08:47:36;;;;;;;11.65;6.90;;;6.10;99.90;;;;;;4999429;28;20587;-71
2022/04/02 08:50:07;;;;;;;8.63;7.25;;;6.20;99.90;;;;;;4991766;28;20058;-73
2022/04/02 08:52:53;;;;;;;9.68;6.22;;;6.30;99.90;;;;;;5002027;28;20045;-71
2022/04/02 08:55:35;;;;;;;13.18;6.88;;;6.30;99.90;;;;;;5097353;27;20396;-72
2022/04/02 08:58:07;;;;;;;9.50;6.03;;;6.10;99.90;;;;;;5096204;28;20063;-72
2022/04/02 09:00:39;;;;;;;11.55;6.90;;;5.80;99.90;;;;;;5094570;28;20052;-72
2022/04/02 09:03:42;;;;;;;10.27;6.10;;;5.70;99.90;;;;;;5087427;28;20123;-71
2022/04/02 09:07:05;;;;;;;10.60;5.50;;;5.60;99.90;;;;;;5087545;28;20044;-72
2022/04/02 09:10:15;;;;;;;14.68;6.60;;;5.50;99.90;;;;;;5086603;28;20048;-71
2022/04/02 09:13:07;;;;;;;14.82;5.10;;;5.30;99.90;;;;;;5075023;28;20139;-71
2022/04/02 09:16:00;;;;;;;7.95;5.70;;;5.30;99.90;;;;;;5086035;28;20067;-71
2022/04/02 09:18:39;;;;;;;7.85;5.55;;;5.10;99.90;;;;;;5097199;28;20396;-72
2022/04/02 09:21:28;;;;;;;13.73;6.65;;;4.90;99.90;;;;;;5086278;28;20048;-72
2022/04/02 09:24:05;;;;;;;15.40;6.80;;;4.80;99.90;;;;;;5086249;28;20575;-72
2022/04/02 09:26:49;;;;;;;14.38;6.15;;;4.70;99.90;;;;;;5118495;27;20439;-72
2022/04/02 09:29:17;;;;;;;12.93;6.95;;;4.70;99.90;;;;;;5069440;28;20127;-71
2022/04/02 09:32:16;;;;;;;11.18;5.35;;;4.60;99.90;;;;;;5090556;28;20067;-72
2022/04/02 09:35:07;;;;;;;10.40;5.53;;;4.50;99.90;;;;;;5060975;28;20060;-72
2022/04/02 09:37:56;;;;;;;10.60;5.82;;;4.50;99.90;;;;;;5081849;28;20501;-72
2022/04/02 09:40:30;;;;;;;;;;;4.50;99.90;;;;;;5094494;28;20146;-72
2022/04/02 09:43:04;;;;;;;6.53;4.35;;;4.60;99.90;;;;;;5087927;28;19947;-72
2022/04/02 09:45:55;;;;;;;8.23;4.97;;;4.40;99.90;;;;;;5082769;28;20059;-73
2022/04/02 09:48:30;;;;;;;8.98;4.07;;;4.30;99.90;;;;;;5084399;28;20063;-72
2022/04/02 09:50:57;;;;;;;9.68;5.05;;;4.30;99.90;;;;;;5084970;28;20553;-71
2022/04/02 09:53:22;;;;;;;6.95;4.03;;;4.20;99.90;;;;;;5083278;28;20057;-72
2022/04/02 09:56:01;;;;;;;8.32;3.97;;;4.20;99.90;;;;;;5078395;28;20052;-72
2022/04/02 09:58:59;;;;;;;5.43;3.88;;;4.20;99.90;;;;;;5079768;28;20040;-72
2022/04/02 10:01:45;;;;;;;8.20;4.78;;;4.20;99.90;;;;;;5100153;28;20462;-71
2022/04/02 10:04:53;;;;;;;6.47;4.78;;;4.10;99.90;;;;;;5083867;28;20505;-72
2022/04/02 10:07:44;;;;;;;5.38;3.60;;;4.20;99.90;;;;;;5063024;28;20087;-72
2022/04/02 10:10:11;;;;;;;6.03;4.07;;;4.30;99.90;;;;;;5073930;28;20044;-72
2022/04/02 10:12:40;;;;;;;5.47;3.55;;;4.30;99.90;;;;;;5041221;28;20044;-71
2022/04/02 10:15:06;;;;;;;7.55;4.78;;;4.40;99.90;;;;;;5063060;28;20547;-72
2022/04/02 10:17:32;;;;;;;10.70;4.40;;;4.40;99.90;;;;;;5064406;28;20036;-72
2022/04/02 10:19:59;;;;;;;8.15;4.45;;;4.40;99.90;;;;;;5060442;28;20049;-71
2022/04/02 10:22:45;;;;;;;8.02;3.60;;;4.60;99.90;;;;;;5081909;28;20101;-73
2022/04/02 10:25:14;;;;;;;9.50;5.30;;;4.50;99.90;;;;;;5073684;28;20059;-71
2022/04/02 10:27:42;;;;;;;5.60;4.38;;;4.50;99.90;;;;;;5068670;28;20113;-71
2022/04/02 10:30:11;;;;;;;6.88;3.92;;;4.50;99.90;;;;;;5064667;28;20045;-72
2022/04/02 10:33:46;;;;;;;8.10;5.35;;;4.70;99.90;;;;;;5068661;28;20102;-72
2022/04/02 10:35:50;;;;;;;7.78;5.20;;;5.00;99.90;;;;;;5061440;28;20575;-71
2022/04/02 10:38:39;;;;;;;7.78;4.72;;;5.10;99.90;;;;;;5071253;28;20059;-71
2022/04/02 10:41:11;;;;;;;8.93;4.07;;;5.20;99.90;;;;;;5082332;28;20127;-72
2022/04/02 10:43:57;;;;;;;10.35;5.55;;;5.10;99.90;;;;;;5078431;28;20052;-72
2022/04/02 10:46:25;;;;;;;14.82;6.00;;;4.90;99.90;;;;;;5086052;28;20456;-71
2022/04/02 10:48:57;;;;;;;7.30;4.97;;;4.90;99.90;;;;;;5077520;28;20052;-72
2022/04/02 10:51:25;;;;;;;7.63;4.70;;;4.70;99.90;;;;;;5063590;28;20056;-71
2022/04/02 10:53:58;;;;;;;11.63;5.82;;;4.70;99.90;;;;;;5077120;28;20587;-72
2022/04/02 10:56:31;;;;;;;10.70;6.45;;;4.60;99.90;;;;;;5085329;28;20614;-69
2022/04/02 10:58:58;;;;;;;13.27;6.18;;;4.40;99.90;;;;;;5077117;28;20460;-68
2022/04/02 11:01:25;;;;;;;13.25;5.88;;;4.30;99.90;;;;;;5080499;28;20048;-69
2022/04/02 11:03:57;;;;;;;9.63;6.65;;;4.20;99.90;;;;;;5077129;28;20040;-69
2022/04/02 11:06:46;;;;;;;10.10;5.53;;;4.30;99.90;;;;;;5062703;28;20059;-69
2022/04/02 11:09:25;;;;;;;10.70;6.07;;;4.20;99.90;;;;;;5068312;28;20052;-68
2022/04/02 11:11:52;;;;;;;10.27;4.85;;;4.30;99.90;;;;;;5070317;28;20070;-70
2022/04/02 11:14:21;;;;;;;7.15;4.22;;;4.40;99.90;;;;;;5067898;28;20152;-69
2022/04/02 11:16:47;;;;;;;7.07;4.50;;;4.50;99.90;;;;;;5075696;28;20045;-73
2022/04/02 11:22:14;;;;;;;9.73;3.90;;;4.80;99.90;;;;;;5064238;28;20067;-70
2022/04/02 11:24:53;;;;;;;8.85;4.70;;;4.90;99.90;;;;;;5066251;28;20048;-70
2022/04/02 11:27:24;;;;;;;8.15;4.35;;;5.00;99.90;;;;;;5068387;28;20048;-69
2022/04/02 11:29:51;;;;;;;13.20;4.35;;;5.00;99.90;;;;;;5062675;28;20052;-70
2022/04/02 11:32:25;;;;;;;6.22;4.43;;;5.10;99.90;;;;;;5069546;28;20048;-70
2022/04/02 11:34:53;;;;;;;8.18;4.47;;;5.30;99.90;;;;;;5073896;28;20044;-70
2022/04/02 11:37:26;;;;;;;7.80;4.22;;;5.30;99.90;;;;;;5072811;28;20044;-70
2022/04/02 11:39:56;;;;;;;7.55;4.28;;;5.00;99.90;;;;;;5066726;28;20375;-69
2022/04/02 11:42:26;;;;;;;5.95;3.83;;;4.80;99.90;;;;;;5064161;28;20520;-69
2022/04/02 11:44:53;;;;;;;6.82;4.20;;;4.70;99.90;;;;;;5069031;28;20945;-70
2022/04/02 11:47:29;;;;;;;6.82;4.32;;;4.70;99.90;;;;;;5075983;28;20071;-71
2022/04/02 11:50:07;;;;;;;14.93;4.65;;;4.70;99.90;;;;;;5075017;28;20101;-70
2022/04/02 11:52:53;;;;;;;10.88;4.80;;;4.80;99.90;;;;;;5068769;28;20093;-70
2022/04/02 11:55:19;;;;;;;7.97;4.13;;;4.80;99.90;;;;;;5061618;28;20059;-70
2022/04/02 11:58:07;;;;;;;8.70;4.68;;;4.90;99.90;;;;;;5072835;28;20059;-69
2022/04/02 12:00:42;;;;;;;9.50;5.25;;;4.90;99.90;;;;;;5069327;28;20044;-70
2022/04/02 12:03:22;;;;;;;7.68;4.68;;;5.00;99.90;;;;;;5078121;28;20090;-69
2022/04/02 12:05:49;;;;;;;9.95;4.57;;;5.10;99.90;;;;;;5072248;28;20056;-71
2022/04/02 12:08:28;;;;;;;5.70;4.28;;;5.10;99.90;;;;;;5077907;28;20060;-70
2022/04/02 12:10:55;;;;;;;6.03;4.90;;;5.20;99.90;;;;;;5062738;28;20066;-70
2022/04/02 12:13:21;;;;;;;12.65;5.43;;;5.10;99.90;;;;;;5070179;28;20084;-70
2022/04/02 12:16:08;;;;;;;5.90;4.15;;;5.10;99.90;;;;;;5078816;28;20044;-70
2022/04/02 12:18:48;;;;;;;7.35;4.93;;;5.20;99.90;;;;;;5069320;28;20052;-70
2022/04/02 12:21:16;;;;;;;6.30;4.40;;;5.30;99.90;;;;;;5075144;28;20494;-69
2022/04/02 12:23:55;;;;;;;6.75;3.92;;;5.70;99.90;;;;;;5050539;28;20049;-70
2022/04/02 12:26:23;;;;;;;5.15;4.47;;;5.90;99.90;;;;;;5072048;28;20048;-70
2022/04/02 12:28:56;;;;;;;8.02;4.88;;;6.30;99.90;;;;;;5075361;28;20051;-70
2022/04/02 12:31:23;;;;;;;6.18;4.07;;;6.50;99.90;;;;;;5077689;28;20600;-70
2022/04/02 12:33:53;;;;;;;4.97;4.10;;;6.40;99.90;;;;;;5077549;28;20059;-70
2022/04/02 12:36:34;;;;;;;8.23;3.90;;;6.30;99.90;;;;;;5077534;28;20048;-70
2022/04/02 12:39:08;;;;;;;7.03;4.35;;;6.00;99.90;;;;;;5069690;28;20452;-71
2022/04/02 12:41:48;;;;;;;10.15;4.25;;;5.70;97.70;;;;;;5069762;28;20122;-70
2022/04/02 12:44:23;;;;;;;6.57;3.75;;;5.50;99.90;;;;;;5073039;28;20084;-70
2022/04/02 12:46:49;;;;;;;6.70;4.15;;;5.60;99.90;;;;;;5068040;28;20446;-70
2022/04/02 12:49:35;;;;;;;9.65;4.82;;;5.50;99.90;;;;;;5068335;28;20503;-71
2022/04/02 12:52:11;;;;;;;6.93;4.53;;;5.50;99.80;;;;;;5070073;28;20052;-71
2022/04/02 12:54:41;;;;;;;12.35;5.80;;;5.50;99.90;;;;;;5062490;28;20060;-70
2022/04/02 12:57:13;;;;;;;6.88;4.63;;;5.60;99.90;;;;;;5076959;28;20060;-69
2022/04/02 12:59:44;;;;;;;5.00;4.50;;;5.70;99.90;;;;;;5078893;28;20759;-70
2022/04/02 13:02:16;;;;;;;8.73;4.85;;;5.70;99.80;;;;;;5078729;28;20148;-70
2022/04/02 13:04:48;;;;;;;7.35;5.38;;;5.70;99.90;;;;;;5078704;28;20052;-71
2022/04/02 13:07:21;;;;;;;7.18;4.65;;;5.50;97.90;;;;;;5068053;28;20056;-70
2022/04/02 13:09:47;;;;;;;12.48;4.22;;;5.40;98.80;;;;;;5057577;28;20478;-70
2022/04/02 13:12:21;;;;;;;5.43;3.88;;;5.40;99.90;;;;;;5076228;28;20124;-70
2022/04/02 13:15:01;;;;;;;9.07;4.82;;;5.30;92.20;;;;;;5080222;28;20052;-70
2022/04/02 13:20:28;;;;;;;6.75;4.95;;;5.20;92.30;;;;;;5075346;28;20097;-70
2022/04/02 13:20:34;;;;;;;5.63;4.72;;;5.20;94.60;;;;;;5070113;28;20128;-70